Time;durP1;ratioP1;P1;durP2;ratioP2;P2;SDS_P1;SDS_P2;PMS_P1;PMS_P2;Temp;Humidity;BMP_temperature;BMP_pressure;BME280_temperature;BME280_humidity;BME280_pressure;Samples;Min_cycle;Max_cycle;Signal;HPM_P1;HPM_P2
2023/02/06 00:09:27;;;;;;;77.40;39.40;;;;;;;-4.40;81.41;100781.35;436612;1254;110372;-39
2023/02/06 00:19:34;;;;;;;103.20;42.30;;;;;;;-4.22;81.66;100781.39;435382;1249;108809;-38
2023/02/06 00:29:42;;;;;;;98.80;41.30;;;;;;;-4.18;81.86;100771.92;435404;1253;97369;-38
2023/02/06 00:39:49;;;;;;;92.40;36.90;;;;;;;-4.20;82.03;100758.59;435418;1254;111832;-40
2023/02/06 00:49:56;;;;;;;85.40;34.60;;;;;;;-4.33;81.91;100752.20;435408;1250;108682;-38
2023/02/06 01:00:02;;;;;;;89.80;35.40;;;;;;;-4.41;82.07;100743.87;435291;1254;97885;-39
2023/02/06 01:10:08;;;;;;;74.20;29.20;;;;;;;-4.51;82.14;100744.94;435546;1249;109430;-45
2023/02/06 01:20:16;;;;;;;64.50;26.60;;;;;;;-4.60;82.14;100739.90;435347;1249;106905;-38
2023/02/06 01:30:23;;;;;;;83.10;33.00;;;;;;;-4.65;82.31;100731.89;435461;1251;97465;-40
2023/02/06 01:40:30;;;;;;;62.90;29.70;;;;;;;-4.65;82.11;100722.95;435434;1249;109706;-39
2023/02/06 02:00:50;;;;;;;68.50;31.30;;;;;;;-4.46;82.22;100723.17;435864;1249;97880;-40
2023/02/06 02:10:58;;;;;;;66.50;29.40;;;;;;;-4.43;82.47;100716.29;439517;1252;107943;-40
2023/02/06 02:21:48;;;;;;;70.10;30.90;;;;;;;-4.53;82.40;100698.56;435721;1249;106465;-39
2023/02/06 02:32:26;;;;;;;84.50;33.80;;;;;;;-4.75;82.44;100681.05;435722;1254;97590;-40
2023/02/06 02:42:40;;;;;;;80.20;32.70;;;;;;;-4.94;82.41;100673.08;435701;1252;109496;-40
2023/02/06 02:52:46;;;;;;;89.10;34.90;;;;;;;-5.09;82.53;100672.48;435436;1254;96629;-41
2023/02/06 03:02:56;;;;;;;71.10;35.00;;;;;;;-5.15;82.56;100681.42;435672;1252;97497;-38
2023/02/06 03:23:11;;;;;;;97.10;43.70;;;;;;;-4.89;82.98;100708.59;435711;1251;97941;-39
2023/02/06 03:33:19;;;;;;;77.30;40.00;;;;;;;-4.77;82.93;100712.05;435402;1254;398043;-38
2023/02/06 03:43:29;;;;;;;75.50;39.20;;;;;;;-4.70;82.82;100718.77;435667;1251;107670;-39
2023/02/06 03:53:38;;;;;;;74.90;36.00;;;;;;;-4.67;83.01;100714.31;435733;1251;97809;-39
2023/02/06 04:03:46;;;;;;;88.70;39.20;;;;;;;-4.47;83.23;100711.00;435724;1251;108478;-39
2023/02/06 04:13:53;;;;;;;68.60;36.30;;;;;;;-4.32;83.06;100698.27;435749;1254;97887;-40
2023/02/06 04:24:00;;;;;;;99.80;44.10;;;;;;;-4.40;83.04;100701.47;435867;1261;109554;-38
2023/02/06 04:34:07;;;;;;;78.00;38.90;;;;;;;-4.41;82.99;100688.62;435803;1251;109278;-39
2023/02/06 04:44:15;;;;;;;70.20;34.20;;;;;;;-4.43;83.06;100689.10;435886;1251;97758;-39
2023/02/06 04:54:22;;;;;;;101.80;46.00;;;;;;;-4.32;83.23;100677.63;435857;1254;109477;-39
2023/02/06 05:04:28;;;;;;;102.40;46.10;;;;;;;-4.51;83.08;100670.56;435835;1254;97709;-40
2023/02/06 05:14:35;;;;;;;154.00;55.40;;;;;;;-4.70;83.08;100673.69;435850;1254;97960;-39
2023/02/06 05:24:42;;;;;;;166.60;59.90;;;;;;;-4.87;83.13;100668.74;435900;1251;110585;-37
2023/02/06 05:34:49;;;;;;;126.80;48.80;;;;;;;-4.94;83.38;100671.17;435800;1253;108731;-39
2023/02/06 05:44:57;;;;;;;104.80;40.30;;;;;;;-4.91;83.38;100685.68;435887;1251;97858;-38
2023/02/06 05:55:04;;;;;;;97.20;41.50;;;;;;;-5.00;83.07;100695.89;435831;1254;110628;-40
2023/02/06 06:05:11;;;;;;;107.40;43.60;;;;;;;-5.04;83.31;100700.23;435868;1254;108318;-41
2023/02/06 06:15:16;;;;;;;112.10;46.90;;;;;;;-5.06;83.12;100699.31;436206;1247;97980;-38
2023/02/06 06:25:23;;;;;;;114.70;54.60;;;;;;;-5.03;83.14;100699.14;436317;1247;110592;-39
2023/02/06 06:35:31;;;;;;;94.00;46.40;;;;;;;-4.87;83.16;100705.05;436217;1247;108360;-39
2023/02/06 06:45:38;;;;;;;72.80;38.40;;;;;;;-4.66;82.90;100709.41;436317;1253;97743;-38
2023/02/06 06:55:46;;;;;;;69.90;35.80;;;;;;;-4.41;83.15;100710.46;436276;1247;110306;-39
2023/02/06 07:05:53;;;;;;;135.00;58.30;;;;;;;-4.14;83.19;100714.70;436262;1261;96653;-40
2023/02/06 07:16:00;;;;;;;111.80;53.40;;;;;;;-4.08;82.94;100717.45;436334;1248;97874;-41
2023/02/06 07:26:08;;;;;;;125.00;58.20;;;;;;;-4.01;82.78;100717.05;436312;1253;110698;-38
2023/02/06 07:36:17;;;;;;;124.30;57.60;;;;;;;-3.89;82.62;100703.41;436324;1253;108348;-39
2023/02/06 07:46:24;;;;;;;124.60;54.90;;;;;;;-3.62;82.74;100701.02;436352;1253;97874;-39
2023/02/06 07:56:32;;;;;;;83.60;39.70;;;;;;;-3.22;82.64;100694.38;436487;1251;109648;-39
2023/02/06 08:06:42;;;;;;;76.90;34.60;;;;;;;-2.87;82.32;100704.88;436325;1254;107853;-40
2023/02/06 08:16:50;;;;;;;72.70;34.90;;;;;;;-2.20;82.48;100713.41;435954;1250;97406;-40
2023/02/06 08:26:58;;;;;;;66.00;31.10;;;;;;;-1.29;82.54;100717.83;435971;1252;111899;-38
2023/02/06 08:37:06;;;;;;;46.20;24.70;;;;;;;-0.63;81.84;100702.94;436143;1252;107634;-40
2023/02/06 08:47:13;;;;;;;36.40;17.70;;;;;;;-0.25;81.52;100702.81;436104;1252;96584;-38
2023/02/06 08:57:20;;;;;;;44.80;20.80;;;;;;;-0.84;79.99;100708.40;436026;1253;97874;-39
2023/02/06 09:07:30;;;;;;;31.20;16.80;;;;;;;-0.72;80.22;100722.23;436068;1252;109594;-38
2023/02/06 09:17:37;;;;;;;48.30;20.90;;;;;;;-0.69;79.68;100725.70;435948;1252;108503;-40
2023/02/06 09:27:46;;;;;;;48.70;21.90;;;;;;;0.03;79.58;100728.85;436044;1252;97896;-39
2023/02/06 09:37:53;;;;;;;36.20;20.50;;;;;;;0.27;78.75;100743.23;436009;1252;96637;-39
2023/02/06 09:48:03;;;;;;;37.30;18.90;;;;;;;-0.33;77.95;100742.89;435934;1252;110554;-39
2023/02/06 09:58:14;;;;;;;46.20;20.80;;;;;;;-0.79;77.56;100743.36;436050;1252;107800;-38
2023/02/06 10:08:22;;;;;;;37.10;19.90;;;;;;;-0.89;77.59;100741.81;435918;1252;98136;-40
2023/02/06 10:18:27;;;;;;;51.80;21.00;;;;;;;-0.97;77.20;100744.07;435911;1252;97462;-38
2023/02/06 10:28:35;;;;;;;38.70;19.60;;;;;;;-0.94;77.49;100741.12;435930;1252;109147;-39
2023/02/06 10:39:06;;;;;;;42.10;21.40;;;;;;;-0.70;77.05;100732.01;435870;1249;107576;-39
2023/02/06 10:49:14;;;;;;;45.50;22.70;;;;;;;-0.77;76.60;100729.54;435958;1252;96626;-39
2023/02/06 11:09:29;;;;;;;29.20;13.60;;;;;;;-0.24;75.69;100715.54;435916;1252;110105;-38
2023/02/06 11:19:41;;;;;;;31.20;15.70;;;;;;;-0.38;73.57;100707.90;435895;1252;109010;-39
2023/02/06 11:29:50;;;;;;;27.80;13.80;;;;;;;-0.55;73.77;100698.01;435854;1252;96730;-40
2023/02/06 11:40:14;;;;;;;30.70;14.30;;;;;;;-0.54;73.82;100701.60;435869;1252;98047;-39
2023/02/06 11:50:23;;;;;;;27.50;14.70;;;;;;;-0.51;73.18;100706.27;435886;1252;109937;-39
2023/02/06 12:00:31;;;;;;;29.20;15.20;;;;;;;-0.55;72.67;100701.30;435835;1249;107019;-41
2023/02/06 12:10:48;;;;;;;36.30;16.60;;;;;;;-0.77;72.44;100703.89;435829;1252;97912;-39
2023/02/06 12:41:17;;;;;;;33.00;17.00;;;;;;;-1.14;72.10;100687.46;435856;1249;108046;-39
2023/02/06 12:51:26;;;;;;;34.20;18.30;;;;;;;-1.15;71.50;100690.41;435855;1251;97918;-39
2023/02/06 13:01:47;;;;;;;39.20;17.30;;;;;;;-1.33;71.65;100699.23;435711;1252;109644;-40
2023/02/06 13:12:06;;;;;;;32.30;19.50;;;;;;;-1.23;71.92;100699.61;435887;1248;107901;-40
2023/02/06 13:22:43;;;;;;;38.70;17.80;;;;;;;-1.36;71.61;100699.13;435787;1252;97868;-41
2023/02/06 13:32:52;;;;;;;29.40;14.40;;;;;;;-1.42;71.19;100700.75;435837;1252;109825;-41
2023/02/06 13:42:56;;;;;;;32.40;15.30;;;;;;;-1.52;71.49;100696.02;435840;1249;107604;-40
2023/02/06 13:53:11;;;;;;;29.70;14.50;;;;;;;-1.60;71.58;100703.17;435949;1252;97475;-39
2023/02/06 14:03:21;;;;;;;35.30;15.40;;;;;;;-1.65;70.98;100708.35;435850;1252;109874;-39
2023/02/06 14:13:34;;;;;;;35.90;16.40;;;;;;;-1.80;70.91;100719.70;435882;1250;108592;-40
2023/02/06 14:23:41;;;;;;;30.50;15.60;;;;;;;-1.91;70.59;100726.09;435843;1252;96912;-40
2023/02/06 14:34:03;;;;;;;34.30;17.50;;;;;;;-1.95;71.36;100723.56;435792;1252;109667;-39
2023/02/06 14:54:28;;;;;;;33.50;16.60;;;;;;;-2.11;71.92;100737.45;435831;1252;97829;-40
2023/02/06 15:04:44;;;;;;;31.10;15.90;;;;;;;-2.23;72.13;100735.21;435795;1252;110324;-40
2023/02/06 15:14:52;;;;;;;37.90;15.90;;;;;;;-2.38;71.63;100732.74;436652;1252;107531;-39
2023/02/06 15:25:05;;;;;;;33.80;15.20;;;;;;;-2.56;72.16;100727.23;435633;1250;97479;-40
2023/02/06 15:35:18;;;;;;;38.50;18.10;;;;;;;-2.73;72.33;100737.66;435545;1249;109791;-40
2023/02/06 15:45:28;;;;;;;37.60;17.20;;;;;;;-2.90;72.74;100738.50;435619;1252;107110;-40
2023/02/06 15:55:37;;;;;;;44.90;19.80;;;;;;;-3.15;72.83;100750.16;436748;1249;97871;-40
2023/02/06 16:05:45;;;;;;;43.10;19.80;;;;;;;-3.45;73.15;100765.04;435608;1248;110067;-39
2023/02/06 16:26:27;;;;;;;30.10;16.10;;;;;;;-3.84;73.72;100767.95;435748;1250;97871;-41
2023/02/06 16:36:33;;;;;;;;;;;;;;;-3.94;74.02;100788.13;435757;1250;110008;-40
2023/02/06 16:46:40;;;;;;;146.60;49.00;;;;;;;-4.30;74.21;100786.18;435646;1252;110670;-40
2023/02/06 16:56:48;;;;;;;120.30;42.60;;;;;;;-4.65;74.50;100801.10;436638;1252;97871;-40
2023/02/06 17:06:56;;;;;;;163.40;50.70;;;;;;;-4.91;74.81;100805.02;436638;1252;110934;-40
2023/02/06 17:17:04;;;;;;;128.10;45.80;;;;;;;-5.22;75.02;100809.72;435569;1249;108282;-39
2023/02/06 17:27:15;;;;;;;171.00;62.00;;;;;;;-5.39;74.94;100815.71;435523;1252;97353;-40
2023/02/06 17:37:21;;;;;;;130.10;47.50;;;;;;;-5.47;75.32;100819.52;436616;1250;107282;-38
2023/02/06 17:47:29;;;;;;;158.10;60.00;;;;;;;-5.51;75.23;100826.94;435981;1252;97196;-40
2023/02/06 17:57:35;;;;;;;143.30;58.40;;;;;;;-5.65;75.57;100828.97;435583;1252;112384;-39
2023/02/06 18:07:43;;;;;;;125.20;53.10;;;;;;;-5.69;75.63;100835.54;436755;1252;108529;-40
2023/02/06 18:17:50;;;;;;;175.20;64.70;;;;;;;-5.76;75.80;100843.77;436347;1248;97889;-40
2023/02/06 18:27:57;;;;;;;177.30;65.20;;;;;;;-5.96;75.66;100842.96;437723;1250;107463;-40
2023/02/06 18:48:13;;;;;;;185.40;73.40;;;;;;;-6.07;76.08;100830.80;437610;1252;109659;-40
2023/02/06 18:58:21;;;;;;;148.00;63.40;;;;;;;-6.43;75.95;100833.10;440235;1250;106480;-39
2023/02/06 19:08:26;;;;;;;138.70;60.30;;;;;;;-6.59;76.12;100824.89;437820;1250;97475;-39
2023/02/06 19:18:33;;;;;;;138.90;61.60;;;;;;;-6.70;76.43;100829.88;437498;1252;108374;-38
2023/02/06 19:28:47;;;;;;;159.60;64.20;;;;;;;-6.65;76.66;100834.08;437373;1252;97915;-40
2023/02/06 19:38:56;;;;;;;157.70;59.00;;;;;;;-6.66;76.75;100846.98;436853;1252;108733;-39
2023/02/06 19:49:04;;;;;;;167.10;71.60;;;;;;;-6.69;76.63;100854.66;437349;1250;107342;-39
2023/02/06 20:09:21;;;;;;;158.90;66.20;;;;;;;-7.07;76.72;100866.25;436455;1250;108881;-40
2023/02/06 20:19:27;;;;;;;;;;;;;;;-7.23;76.84;100882.80;436640;1253;97855;-39
2023/02/06 20:29:37;;;;;;;169.40;65.00;;;;;;;-7.27;77.09;100895.67;438244;1248;110674;-41
2023/02/06 20:39:45;;;;;;;164.30;69.90;;;;;;;-7.30;76.80;100908.64;439781;1248;107162;-40
2023/02/06 20:49:50;;;;;;;163.10;64.20;;;;;;;-7.49;76.88;100911.08;439970;1253;97859;-40
2023/02/06 20:59:57;;;;;;;165.10;68.50;;;;;;;-7.49;77.26;100915.70;439258;1248;108638;-39
2023/02/06 21:10:05;;;;;;;153.30;65.40;;;;;;;-7.51;77.11;100928.48;438737;1250;97863;-39
2023/02/06 21:20:12;;;;;;;170.90;71.40;;;;;;;-7.50;77.55;100949.00;439039;1248;109587;-40
2023/02/06 21:30:19;;;;;;;192.80;72.90;;;;;;;-7.42;77.54;100942.33;440461;1252;107618;-39
2023/02/06 21:40:26;;;;;;;184.00;69.60;;;;;;;-7.27;77.72;100953.42;439764;1253;96561;-40
2023/02/06 21:50:36;;;;;;;199.50;75.50;;;;;;;-7.24;77.75;100976.45;439750;1252;111471;-40
2023/02/06 22:00:42;;;;;;;203.10;72.10;;;;;;;-7.21;77.79;100983.16;438958;1250;105987;-40
2023/02/06 22:10:49;;;;;;;211.30;71.20;;;;;;;-7.21;77.73;100975.30;438948;1253;96574;-40
2023/02/06 22:31:06;;;;;;;141.30;53.50;;;;;;;-7.23;78.23;100955.31;439198;1253;109120;-40
2023/02/06 22:41:16;;;;;;;305.30;119.80;;;;;;;-7.42;78.13;100929.98;436732;1260;97896;-41
2023/02/06 22:51:22;;;;;;;501.10;210.00;;;;;;;-7.61;77.91;100933.68;435517;1261;106863;-40
2023/02/06 23:01:32;;;;;;;390.40;174.90;;;;;;;-7.83;78.00;100932.27;435612;1252;97857;-39
2023/02/06 23:11:37;;;;;;;386.80;164.40;;;;;;;-7.95;78.35;100942.80;435497;1261;108220;-40
2023/02/06 23:21:46;;;;;;;367.70;154.10;;;;;;;-8.05;78.19;100934.27;435604;1251;107812;-40
2023/02/06 23:31:54;;;;;;;342.80;143.30;;;;;;;-8.18;78.36;100937.98;435582;1251;97899;-40
2023/02/06 23:42:00;;;;;;;333.70;146.80;;;;;;;-8.24;78.31;100935.80;435525;1251;107951;-40
2023/02/06 23:52:06;;;;;;;331.10;146.30;;;;;;;-8.28;78.44;100926.19;435540;1250;97903;-40
